ケープタウン の空港の天気 - METARとTAF

ケープタウン国際空港 ( FACT / CPT ) - 南アフリカ ケープタウン
飛行場実況気象(Metar)
観測時間02/01 11:00 SAST (02/01 09:00 UTC)
風向・風速南 7m/s
視程10km以上
天気現象
少しの雲 雲底高度 910m
気温24℃
湿度65%
気圧1016hPa
METARFACT 010900Z 18014KT 9999 FEW030 24/17 Q1016 NOSIG
過去の天気等 Google飛行場航空写真 Wunderground天気予報

過去48時間のMETAR

飛行場予報(TAF)
発表時間: 2/01 08:02 SAST (2/01 06:02 UTC)
予報対象時間: 1日8時 SAST ~ 2日14時 SAST
風向・風速南 6m/s
視程10km以上
全天の8割程度の雲 雲底高度 210m
1日8時 SAST ~ 1日10時 SAST に徐々に
全天の4割程度の雲 雲底高度 460m
1日17時 SAST ~ 1日23時 SAST に 確率 30% で一時的に
全天の8割程度の雲 雲底高度 460m
TAF AMD FACT 010602Z 0106/0212 18012KT 9999 BKN007 TX25/0112Z TN16/0204Z
BECMG 0106/0108 SCT015
PROB30 TEMPO 0115/0121 BKN015